Terminal Aerodrome Forecast
Issued by NWS Charleston, WV

Current Version | Previous Version | Graphics & Text | Print | Product List | Glossary On
Versions: 1 2 3 4 5 6 7 8 9 10 11 12 13 14 15 16 17 18 19 20 21 22 23
000
FTUS41 KRLX 022300
TAFHTS
TAF
KHTS 022321Z 0300/0324 VRB03KT P6SM SCT250
     FM031200 11004KT 6SM BR OVC035
     FM031500 14006KT 5SM -RA BR OVC020
     FM031700 17008KT 3SM -RA BR OVC010
     FM031900 18009KT 2SM -RA BR OVC008
     FM032200 20010G16KT 3SM -RA BR OVC010=

USA.gov is the U.S. government's official web portal to all federal, state and local government web resources and services.